Time;durP1;ratioP1;P1;durP2;ratioP2;P2;SDS_P1;SDS_P2;PMS_P1;PMS_P2;Temp;Humidity;BMP_temperature;BMP_pressure;BME280_temperature;BME280_humidity;BME280_pressure;Samples;Min_cycle;Max_cycle;Signal;HPM_P1;HPM_P2
2022/11/20 00:01:36;;;;;;;22.27;10.85;;;-0.10;99.90;;;;;;5017738;28;21233;-75
2022/11/20 00:04:01;;;;;;;18.98;9.75;;;-0.10;99.90;;;;;;5025498;28;20451;-77
2022/11/20 00:06:28;;;;;;;27.02;11.27;;;-0.20;99.90;;;;;;5026780;28;20021;-76
2022/11/20 00:08:56;;;;;;;23.60;10.45;;;-0.20;99.90;;;;;;5027280;28;20026;-73
2022/11/20 00:11:23;;;;;;;24.85;11.93;;;-0.20;99.90;;;;;;5024934;28;20339;-77
2022/11/20 00:13:52;;;;;;;28.05;11.65;;;-0.20;99.90;;;;;;5025577;28;20086;-76
2022/11/20 00:16:22;;;;;;;28.73;12.55;;;-0.20;99.90;;;;;;5026978;28;20034;-74
2022/11/20 00:18:48;;;;;;;30.15;13.20;;;-0.30;99.90;;;;;;5019886;28;20041;-74
2022/11/20 00:21:20;;;;;;;25.20;11.85;;;-0.30;99.90;;;;;;5024870;28;20037;-74
2022/11/20 00:23:46;;;;;;;27.73;12.73;;;-0.30;99.90;;;;;;5015173;28;20366;-75
2022/11/20 00:26:15;;;;;;;22.58;11.27;;;-0.20;99.90;;;;;;5024958;28;20030;-75
2022/11/20 00:28:44;;;;;;;25.13;11.27;;;-0.20;99.90;;;;;;5037856;28;20020;-72
2022/11/20 00:31:15;;;;;;;24.92;12.32;;;-0.30;99.90;;;;;;5021141;28;20034;-75
2022/11/20 00:33:41;;;;;;;22.92;12.15;;;-0.20;99.90;;;;;;5020931;28;20124;-73
2022/11/20 00:36:14;;;;;;;26.27;11.98;;;-0.30;99.90;;;;;;5022988;28;20040;-74
2022/11/20 00:38:40;;;;;;;23.90;11.02;;;-0.30;99.90;;;;;;5028271;28;20042;-78
2022/11/20 00:41:08;;;;;;;23.73;11.50;;;-0.30;99.90;;;;;;5025930;28;20347;-76
2022/11/20 00:43:34;;;;;;;24.17;12.43;;;-0.30;99.90;;;;;;5020791;28;20025;-74
2022/11/20 00:46:02;;;;;;;23.85;11.38;;;-0.30;99.90;;;;;;5027287;28;20040;-72
2022/11/20 00:48:28;;;;;;;25.13;11.45;;;-0.30;99.90;;;;;;5026267;28;20041;-75
2022/11/20 00:50:54;;;;;;;31.92;12.60;;;-0.30;99.90;;;;;;5025745;28;20033;-75
2022/11/20 00:53:21;;;;;;;21.15;10.60;;;-0.30;99.90;;;;;;5020790;28;20021;-74
2022/11/20 00:56:00;;;;;;;28.77;10.95;;;-0.40;99.90;;;;;;5022122;28;20714;-76
2022/11/20 00:58:30;;;;;;;29.17;11.18;;;-0.40;99.90;;;;;;5025621;28;20788;-74
2022/11/20 01:01:11;;;;;;;26.15;11.48;;;-0.30;99.90;;;;;;5015553;28;20419;-74
2022/11/20 01:03:42;;;;;;;22.20;10.75;;;-0.30;99.90;;;;;;5024356;28;20029;-73
2022/11/20 01:06:18;;;;;;;22.80;10.73;;;-0.40;99.90;;;;;;5019773;28;20045;-74
2022/11/20 01:08:45;;;;;;;22.48;11.27;;;-0.40;99.90;;;;;;5003768;28;20107;-75
2022/11/20 01:11:20;;;;;;;23.13;10.95;;;-0.50;99.90;;;;;;5020979;28;20025;-74
2022/11/20 01:13:47;;;;;;;22.73;10.93;;;-0.50;99.90;;;;;;5018748;28;20233;-75
2022/11/20 01:16:21;;;;;;;27.20;11.13;;;-0.50;99.90;;;;;;5025404;28;20350;-74
2022/11/20 01:18:53;;;;;;;26.30;11.77;;;-0.50;99.90;;;;;;5019908;28;20029;-74
2022/11/20 01:21:27;;;;;;;28.35;11.82;;;-0.50;99.90;;;;;;5022497;28;20116;-75
2022/11/20 01:23:53;;;;;;;23.40;11.27;;;-0.60;99.90;;;;;;5021742;28;20030;-75
2022/11/20 01:26:21;;;;;;;22.77;11.20;;;-0.70;99.90;;;;;;5022244;28;20029;-75
2022/11/20 01:28:48;;;;;;;23.67;10.60;;;-0.70;99.90;;;;;;5017592;28;20120;-75
2022/11/20 01:31:19;;;;;;;22.80;10.95;;;-0.70;99.90;;;;;;5020957;28;20014;-74
2022/11/20 01:33:47;;;;;;;24.85;10.43;;;-0.70;99.90;;;;;;5027574;28;20032;-74
2022/11/20 01:36:13;;;;;;;21.75;11.32;;;-0.70;99.90;;;;;;5026097;28;20021;-75
2022/11/20 01:38:39;;;;;;;24.90;11.35;;;-0.60;99.90;;;;;;5022747;28;20033;-74
2022/11/20 01:41:06;;;;;;;27.38;11.45;;;-0.60;99.90;;;;;;5029950;28;20056;-75
2022/11/20 01:43:32;;;;;;;27.63;11.30;;;-0.70;99.90;;;;;;5024173;28;20160;-75
2022/11/20 01:46:18;;;;;;;23.73;11.38;;;-0.70;99.90;;;;;;5021914;28;20112;-73
2022/11/20 01:49:10;;;;;;;29.45;10.93;;;-0.70;99.90;;;;;;5026939;28;20021;-73
2022/11/20 01:51:41;;;;;;;22.75;10.57;;;-0.70;99.90;;;;;;5022267;28;20072;-75
2022/11/20 01:54:14;;;;;;;21.85;10.73;;;-0.80;99.90;;;;;;5025589;28;20373;-75
2022/11/20 01:56:44;;;;;;;20.25;10.15;;;-0.80;99.90;;;;;;5021943;28;20053;-75
2022/11/20 01:59:13;;;;;;;24.75;10.77;;;-0.80;99.90;;;;;;5020897;28;20038;-74
2022/11/20 02:01:41;;;;;;;19.15;9.45;;;-0.80;99.90;;;;;;5020715;28;20039;-74
2022/11/20 02:04:09;;;;;;;24.48;11.27;;;-0.90;99.90;;;;;;5025324;28;20434;-74
2022/11/20 02:06:40;;;;;;;24.30;11.93;;;-0.80;99.90;;;;;;5026872;28;20083;-75
2022/11/20 02:09:05;;;;;;;25.10;11.07;;;-0.80;99.90;;;;;;5022911;28;20025;-74
2022/11/20 02:11:31;;;;;;;24.88;10.57;;;-0.80;99.90;;;;;;5021163;28;20036;-74
2022/11/20 02:13:58;;;;;;;22.20;9.82;;;-0.90;99.90;;;;;;5028952;28;20116;-75
2022/11/20 02:16:27;;;;;;;24.15;10.90;;;-0.90;99.90;;;;;;5025306;28;20029;-75
2022/11/20 02:18:55;;;;;;;23.90;11.18;;;-0.90;99.90;;;;;;5022691;28;20029;-73
2022/11/20 02:21:36;;;;;;;26.05;10.43;;;-0.90;99.90;;;;;;5024714;28;20032;-74
2022/11/20 02:24:14;;;;;;;21.65;10.52;;;-0.90;99.90;;;;;;5027912;28;20108;-75
2022/11/20 02:26:54;;;;;;;21.30;10.70;;;-0.90;99.90;;;;;;5030617;28;20041;-74
2022/11/20 02:29:30;;;;;;;20.85;10.07;;;-0.90;99.90;;;;;;5028542;28;20076;-75
2022/11/20 02:32:00;;;;;;;21.33;10.27;;;-1.00;99.90;;;;;;5022752;28;20375;-74
2022/11/20 02:34:26;;;;;;;22.38;9.68;;;-1.00;99.90;;;;;;5022248;28;20121;-74
2022/11/20 02:36:55;;;;;;;21.52;10.50;;;-1.00;99.90;;;;;;5021610;28;20113;-74
2022/11/20 02:39:27;;;;;;;20.42;10.52;;;-1.00;99.90;;;;;;5021093;28;20402;-75
2022/11/20 02:41:55;;;;;;;;;;;-1.10;99.90;;;;;;5023617;28;20120;-75
2022/11/20 02:44:21;;;;;;;21.38;9.73;;;-1.10;99.90;;;;;;5023072;28;19917;-73
2022/11/20 02:46:46;;;;;;;22.63;10.70;;;-1.10;99.90;;;;;;5025076;28;20434;-73
2022/11/20 02:49:16;;;;;;;21.23;9.80;;;-1.20;99.90;;;;;;5025017;28;20033;-75
2022/11/20 02:51:44;;;;;;;22.17;10.38;;;-1.20;99.90;;;;;;5028393;28;20580;-75
2022/11/20 02:54:10;;;;;;;21.67;10.07;;;-1.20;99.90;;;;;;5025201;28;20034;-74
2022/11/20 02:56:38;;;;;;;25.50;10.10;;;-1.20;99.90;;;;;;5022391;28;20037;-75
2022/11/20 02:59:04;;;;;;;22.55;10.50;;;-1.10;99.90;;;;;;5021043;28;20049;-72
2022/11/20 03:01:30;;;;;;;24.33;10.73;;;-1.10;99.90;;;;;;5025180;28;20025;-75
2022/11/20 03:03:55;;;;;;;24.00;10.63;;;-1.10;99.90;;;;;;5025602;28;20034;-74
2022/11/20 03:06:24;;;;;;;22.00;11.25;;;-1.10;99.90;;;;;;5025209;28;20072;-73
2022/11/20 03:08:49;;;;;;;20.33;10.85;;;-1.10;99.90;;;;;;5025096;28;20335;-73
2022/11/20 03:11:18;;;;;;;19.48;10.50;;;-1.00;99.90;;;;;;5027773;28;20022;-73
2022/11/20 03:13:44;;;;;;;19.42;9.82;;;-1.00;99.90;;;;;;5018265;28;20445;-75
2022/11/20 03:16:16;;;;;;;23.35;10.15;;;-1.00;99.90;;;;;;5025524;28;20029;-75
2022/11/20 03:18:42;;;;;;;18.00;10.18;;;-1.00;99.90;;;;;;5019810;28;20018;-74
2022/11/20 03:21:09;;;;;;;29.27;11.07;;;-1.00;99.90;;;;;;5023032;28;20021;-75
2022/11/20 03:23:36;;;;;;;21.55;10.10;;;-1.10;99.90;;;;;;5023919;28;20053;-75
2022/11/20 03:26:15;;;;;;;20.13;10.52;;;-1.10;99.90;;;;;;5038245;28;20026;-75
2022/11/20 03:28:45;;;;;;;24.25;10.05;;;-1.10;99.90;;;;;;5023211;28;20022;-75
2022/11/20 03:31:15;;;;;;;25.08;11.07;;;-1.10;99.90;;;;;;5021760;28;20033;-75
2022/11/20 03:33:42;;;;;;;28.33;10.73;;;-1.20;99.90;;;;;;5026036;28;20026;-77
2022/11/20 03:36:11;;;;;;;22.55;10.43;;;-1.20;99.90;;;;;;5019473;28;20590;-75
2022/11/20 03:38:37;;;;;;;26.02;10.52;;;-1.20;99.90;;;;;;5022302;28;20045;-74
2022/11/20 03:41:20;;;;;;;21.33;11.10;;;-1.30;99.90;;;;;;5022498;28;20185;-74
2022/11/20 03:43:56;;;;;;;27.85;11.13;;;-1.30;99.90;;;;;;5026244;28;20462;-77
2022/11/20 03:46:22;;;;;;;20.73;9.95;;;-1.20;99.90;;;;;;5020881;28;20044;-75
2022/11/20 03:48:48;;;;;;;22.88;11.18;;;-1.20;99.90;;;;;;5020081;28;20037;-75
2022/11/20 03:51:31;;;;;;;18.23;9.88;;;-1.20;99.90;;;;;;5021176;28;20072;-75
2022/11/20 03:53:59;;;;;;;25.40;10.02;;;-1.20;99.90;;;;;;5017716;28;20034;-75
2022/11/20 03:56:31;;;;;;;23.35;9.98;;;-1.20;99.90;;;;;;5021922;28;20033;-74
2022/11/20 03:58:57;;;;;;;22.40;10.57;;;-1.30;99.90;;;;;;5020746;28;20102;-76
2022/11/20 04:01:25;;;;;;;21.92;10.23;;;-1.30;99.90;;;;;;5024179;28;20034;-76
2022/11/20 04:03:53;;;;;;;22.92;9.70;;;-1.30;99.90;;;;;;5023737;28;20034;-76
2022/11/20 04:06:25;;;;;;;23.00;10.57;;;-1.40;99.90;;;;;;5023094;28;20112;-75
2022/11/20 04:08:53;;;;;;;21.83;9.57;;;-1.40;99.90;;;;;;5026646;28;20320;-75
2022/11/20 04:11:22;;;;;;;28.40;11.45;;;-1.50;99.90;;;;;;5022405;28;20283;-75
2022/11/20 04:13:51;;;;;;;23.75;10.25;;;-1.60;99.90;;;;;;5021257;28;20435;-75
2022/11/20 04:16:18;;;;;;;22.58;9.90;;;-1.60;99.90;;;;;;5024910;28;20044;-74
2022/11/20 04:18:43;;;;;;;23.48;10.65;;;-1.60;99.90;;;;;;5024040;28;20029;-75
2022/11/20 04:21:12;;;;;;;22.23;10.63;;;-1.60;99.90;;;;;;5020617;28;20057;-74
2022/11/20 04:23:39;;;;;;;23.27;10.13;;;-1.70;99.90;;;;;;5021969;28;20067;-75
2022/11/20 04:26:10;;;;;;;22.50;10.50;;;-1.70;99.90;;;;;;5026872;28;20029;-74
2022/11/20 04:28:39;;;;;;;23.80;10.90;;;-1.70;99.90;;;;;;5021840;28;20030;-73
2022/11/20 04:31:10;;;;;;;23.70;11.25;;;-1.70;99.90;;;;;;5021347;28;20065;-75
2022/11/20 04:33:36;;;;;;;32.47;10.77;;;-1.60;99.90;;;;;;5022615;28;20842;-75
2022/11/20 04:36:04;;;;;;;29.35;11.43;;;-1.60;99.90;;;;;;5022624;28;20025;-75
2022/11/20 04:38:30;;;;;;;27.85;11.88;;;-1.60;99.90;;;;;;5025076;28;20043;-74
2022/11/20 04:41:00;;;;;;;25.63;10.70;;;-1.60;99.90;;;;;;5018399;28;20033;-75
2022/11/20 04:43:28;;;;;;;25.52;10.30;;;-1.60;99.90;;;;;;5023309;28;20026;-74
2022/11/20 04:45:55;;;;;;;24.25;10.32;;;-1.60;99.90;;;;;;5023746;28;20033;-75
2022/11/20 04:48:21;;;;;;;21.67;10.02;;;-1.60;99.90;;;;;;5021861;28;20323;-75
2022/11/20 04:50:47;;;;;;;24.95;10.75;;;-1.60;99.90;;;;;;5020437;28;20544;-75
2022/11/20 04:53:13;;;;;;;21.80;10.27;;;-1.60;99.90;;;;;;5019288;28;20072;-76
2022/11/20 04:55:38;;;;;;;22.27;11.25;;;-1.60;99.90;;;;;;5022970;28;20349;-74
2022/11/20 04:58:04;;;;;;;26.23;10.43;;;-1.60;99.90;;;;;;5031895;28;20107;-74
2022/11/20 05:00:32;;;;;;;22.42;9.82;;;-1.60;99.90;;;;;;5020021;28;20034;-74
2022/11/20 05:02:57;;;;;;;21.17;10.38;;;-1.60;99.90;;;;;;5020227;28;20434;-75
2022/11/20 05:05:25;;;;;;;23.33;10.75;;;-1.60;99.90;;;;;;5022782;28;20021;-75
2022/11/20 05:07:51;;;;;;;24.65;11.25;;;-1.60;99.90;;;;;;5021734;28;20041;-74
2022/11/20 05:10:17;;;;;;;23.92;11.02;;;-1.60;99.90;;;;;;5021153;28;20021;-75
2022/11/20 05:12:43;;;;;;;24.15;10.68;;;-1.60;99.90;;;;;;5021447;28;20026;-75
2022/11/20 05:15:09;;;;;;;19.90;10.13;;;-1.60;99.90;;;;;;5015666;28;20034;-75
2022/11/20 05:17:34;;;;;;;21.23;9.95;;;-1.60;99.90;;;;;;5020582;28;20030;-75
2022/11/20 05:20:05;;;;;;;23.70;10.05;;;-1.70;99.90;;;;;;5022618;28;20359;-75
2022/11/20 05:22:30;;;;;;;21.00;9.73;;;-1.70;99.90;;;;;;5019000;28;20034;-73
2022/11/20 05:24:56;;;;;;;25.98;10.80;;;-1.70;99.90;;;;;;5024831;28;20037;-75
2022/11/20 05:27:22;;;;;;;21.40;10.15;;;-1.70;99.90;;;;;;5020388;28;20029;-74
2022/11/20 05:29:47;;;;;;;20.40;9.80;;;-1.60;99.90;;;;;;5023364;28;20022;-74
2022/11/20 05:32:13;;;;;;;22.60;9.68;;;-1.60;99.90;;;;;;5028666;28;20347;-75
2022/11/20 05:34:41;;;;;;;19.80;9.02;;;-1.60;99.90;;;;;;5022245;28;20034;-75
2022/11/20 05:37:07;;;;;;;22.00;9.32;;;-1.60;99.90;;;;;;5022615;28;20034;-74
2022/11/20 05:39:35;;;;;;;21.23;9.88;;;-1.60;99.90;;;;;;5022219;28;20030;-75
2022/11/20 05:44:45;;;;;;;22.63;9.95;;;-1.60;99.90;;;;;;5023879;28;20072;-74
2022/11/20 05:47:11;;;;;;;23.13;10.07;;;-1.50;99.90;;;;;;5024770;28;20064;-74
2022/11/20 05:49:36;;;;;;;20.05;9.82;;;-1.50;99.90;;;;;;5020306;28;20498;-75
2022/11/20 05:52:02;;;;;;;27.05;10.07;;;-1.50;99.90;;;;;;5023987;28;20382;-74
2022/11/20 05:54:27;;;;;;;17.65;9.25;;;-1.50;99.90;;;;;;5022955;28;20426;-75
2022/11/20 05:56:56;;;;;;;21.10;9.10;;;-1.50;99.90;;;;;;5031272;28;20446;-75
2022/11/20 05:59:21;;;;;;;20.35;9.93;;;-1.50;99.90;;;;;;5023538;28;20025;-74
2022/11/20 06:01:47;;;;;;;20.48;9.43;;;-1.70;99.90;;;;;;5026849;28;20030;-76
2022/11/20 06:04:12;;;;;;;24.05;9.93;;;-1.80;99.90;;;;;;5025424;28;20030;-74
2022/11/20 06:06:38;;;;;;;28.30;10.77;;;-1.80;99.90;;;;;;5026718;28;20068;-74
2022/11/20 06:09:04;;;;;;;22.92;10.23;;;-1.80;99.90;;;;;;5027228;28;20558;-75
2022/11/20 06:11:29;;;;;;;20.30;9.70;;;-1.80;99.90;;;;;;5024485;28;20026;-75
2022/11/20 06:13:59;;;;;;;28.15;10.38;;;-1.80;99.90;;;;;;5022446;28;20026;-75
2022/11/20 06:16:27;;;;;;;20.08;9.35;;;-1.80;99.90;;;;;;5022943;28;20061;-75
2022/11/20 06:18:53;;;;;;;24.65;9.73;;;-1.70;99.90;;;;;;5021039;28;20056;-75
2022/11/20 06:21:21;;;;;;;21.58;9.55;;;-1.70;99.90;;;;;;5031302;28;20474;-75
2022/11/20 06:23:48;;;;;;;20.25;9.27;;;-1.60;99.90;;;;;;5022577;28;20454;-75
2022/11/20 06:26:20;;;;;;;21.52;9.88;;;-1.60;99.90;;;;;;5021675;28;20101;-73
2022/11/20 06:28:46;;;;;;;22.50;9.90;;;-1.60;99.90;;;;;;5031778;28;20043;-75
2022/11/20 06:31:14;;;;;;;22.05;9.32;;;-1.70;99.90;;;;;;5024456;28;20063;-75
2022/11/20 06:33:40;;;;;;;20.60;9.82;;;-1.70;99.90;;;;;;5022533;28;20044;-75
2022/11/20 06:36:06;;;;;;;23.20;10.30;;;-1.70;99.90;;;;;;5023869;28;20092;-74
2022/11/20 06:38:32;;;;;;;19.92;9.23;;;-1.80;99.90;;;;;;5023423;28;20038;-74
2022/11/20 06:40:57;;;;;;;18.33;10.10;;;-1.80;99.90;;;;;;5026257;28;20353;-75
2022/11/20 06:43:24;;;;;;;19.35;9.90;;;-1.80;99.90;;;;;;5017982;28;20026;-74
2022/11/20 06:45:56;;;;;;;19.77;9.93;;;-1.80;99.90;;;;;;5020986;28;20025;-75
2022/11/20 06:48:25;;;;;;;22.70;10.38;;;-1.90;99.90;;;;;;5022563;28;20036;-75
2022/11/20 06:50:51;;;;;;;19.70;9.48;;;-1.90;99.90;;;;;;5026113;28;20048;-73
2022/11/20 06:53:17;;;;;;;21.58;9.80;;;-2.00;99.90;;;;;;5028799;28;20029;-73
2022/11/20 06:55:44;;;;;;;19.55;10.30;;;-1.90;99.90;;;;;;5020657;28;20060;-75
2022/11/20 06:58:10;;;;;;;19.55;10.75;;;-1.80;99.90;;;;;;5021790;28;20037;-75
2022/11/20 07:00:35;;;;;;;27.08;12.02;;;-1.80;99.90;;;;;;5015509;28;20080;-74
2022/11/20 07:03:11;;;;;;;19.13;10.18;;;-1.80;99.90;;;;;;5024910;28;20021;-75
2022/11/20 07:05:40;;;;;;;22.63;11.20;;;-1.70;99.90;;;;;;5023984;28;20378;-75
2022/11/20 07:08:10;;;;;;;32.85;14.00;;;-1.60;99.90;;;;;;5022015;28;20014;-74
2022/11/20 07:10:36;;;;;;;30.50;13.05;;;-1.60;99.90;;;;;;5025023;28;20041;-75
2022/11/20 07:13:01;;;;;;;24.88;12.32;;;-1.50;99.90;;;;;;5026029;28;20366;-75
2022/11/20 07:15:29;;;;;;;26.42;12.73;;;-1.50;99.90;;;;;;5023621;28;20029;-74
2022/11/20 07:17:58;;;;;;;23.88;11.07;;;-1.50;99.90;;;;;;5018945;28;20037;-75
2022/11/20 07:20:25;;;;;;;21.65;10.80;;;-1.50;99.90;;;;;;5028299;28;20184;-75
2022/11/20 07:22:55;;;;;;;28.02;11.63;;;-1.50;99.90;;;;;;5020051;28;20118;-75
2022/11/20 07:25:27;;;;;;;27.38;10.02;;;-1.50;99.90;;;;;;5021915;28;20048;-75
2022/11/20 07:27:53;;;;;;;19.60;10.48;;;-1.40;99.90;;;;;;5021127;28;20022;-74
2022/11/20 07:30:18;;;;;;;18.30;9.60;;;-1.30;99.90;;;;;;5026515;28;20099;-73
2022/11/20 07:32:54;;;;;;;24.77;11.00;;;-1.30;99.90;;;;;;5022424;28;20085;-75
2022/11/20 07:35:19;;;;;;;26.00;11.98;;;-1.20;99.90;;;;;;5020478;28;20057;-75
2022/11/20 07:37:46;;;;;;;24.85;11.00;;;-1.20;99.90;;;;;;5019259;28;20092;-75
2022/11/20 07:40:13;;;;;;;24.48;11.23;;;-1.10;99.90;;;;;;5021331;28;20053;-73
2022/11/20 07:42:39;;;;;;;23.60;10.73;;;-1.10;99.90;;;;;;5023814;28;20079;-75
2022/11/20 07:45:07;;;;;;;25.05;11.20;;;-1.00;99.90;;;;;;5021076;28;20029;-75
2022/11/20 07:47:36;;;;;;;25.67;10.93;;;-1.00;99.90;;;;;;5023920;28;20021;-75
2022/11/20 07:50:02;;;;;;;21.58;10.32;;;-1.00;99.90;;;;;;5024185;28;20333;-74
2022/11/20 07:52:31;;;;;;;22.25;11.20;;;-1.10;99.90;;;;;;5043431;28;20032;-74
2022/11/20 07:54:56;;;;;;;20.48;10.15;;;-1.10;99.90;;;;;;5035108;28;20032;-75
2022/11/20 07:57:22;;;;;;;21.15;9.90;;;-1.10;99.90;;;;;;5037016;28;20053;-75
2022/11/20 07:59:47;;;;;;;21.70;11.18;;;-1.10;99.90;;;;;;5049922;28;20072;-74
2022/11/20 08:02:13;;;;;;;24.02;11.95;;;-1.00;99.90;;;;;;5048656;28;20121;-75
2022/11/20 08:04:41;;;;;;;25.42;10.82;;;-1.00;99.90;;;;;;5035864;28;20112;-75
2022/11/20 08:07:06;;;;;;;21.80;11.00;;;-0.90;99.90;;;;;;5034296;28;20056;-75
2022/11/20 08:09:34;;;;;;;21.35;10.60;;;-0.90;99.90;;;;;;5036590;28;20518;-75
2022/11/20 08:14:47;;;;;;;27.27;10.45;;;-0.70;99.90;;;;;;5021214;28;20076;-75
2022/11/20 08:17:12;;;;;;;20.52;10.90;;;-0.60;99.90;;;;;;5021649;28;20038;-75
2022/11/20 08:19:38;;;;;;;21.83;10.27;;;-0.60;99.90;;;;;;5023213;28;20062;-75
2022/11/20 08:22:06;;;;;;;24.13;11.63;;;-0.50;99.90;;;;;;5020439;28;20026;-76
2022/11/20 08:24:32;;;;;;;23.23;11.73;;;-0.40;99.90;;;;;;5025147;28;20033;-77
2022/11/20 08:26:58;;;;;;;25.20;11.23;;;-0.20;99.90;;;;;;5022861;28;20044;-78
2022/11/20 08:29:27;;;;;;;25.13;11.18;;;-0.10;99.90;;;;;;5021937;28;20022;-74
2022/11/20 08:31:52;;;;;;;25.33;11.20;;;0.00;99.90;;;;;;5021836;28;20029;-76
2022/11/20 08:34:18;;;;;;;25.63;12.00;;;0.10;99.90;;;;;;5017120;28;20734;-76
2022/11/20 08:36:44;;;;;;;36.70;13.13;;;0.30;99.90;;;;;;5023091;28;20370;-75
2022/11/20 08:39:13;;;;;;;22.05;11.70;;;0.40;99.90;;;;;;5023865;28;20045;-75
2022/11/20 08:41:39;;;;;;;21.52;11.65;;;0.50;99.90;;;;;;5018683;28;20629;-75
2022/11/20 08:44:07;;;;;;;26.95;11.25;;;0.60;99.90;;;;;;5026582;28;20129;-73
2022/11/20 08:46:39;;;;;;;32.15;13.00;;;0.70;99.90;;;;;;5021114;28;20022;-75
2022/11/20 08:49:05;;;;;;;21.95;10.15;;;0.70;99.90;;;;;;5018175;28;20113;-74
2022/11/20 08:51:34;;;;;;;36.90;12.98;;;0.90;99.90;;;;;;5020061;28;20053;-75
2022/11/20 08:54:02;;;;;;;31.05;12.48;;;1.00;99.90;;;;;;5021030;28;20021;-74
2022/11/20 08:56:28;;;;;;;24.85;12.45;;;1.10;99.90;;;;;;5023016;28;20394;-75
2022/11/20 08:58:54;;;;;;;27.02;12.68;;;1.20;99.90;;;;;;5018015;28;20038;-75
2022/11/20 09:01:20;;;;;;;22.85;12.63;;;1.30;99.90;;;;;;5020196;28;20025;-76
2022/11/20 09:03:46;;;;;;;26.17;13.07;;;1.40;99.90;;;;;;5019946;28;20022;-75
2022/11/20 09:06:13;;;;;;;26.13;12.40;;;1.30;99.90;;;;;;5026000;28;20029;-75
2022/11/20 09:08:39;;;;;;;26.25;13.50;;;1.30;99.90;;;;;;5027667;28;20037;-75
2022/11/20 09:11:05;;;;;;;25.98;13.05;;;1.30;99.90;;;;;;5016940;28;20053;-75
2022/11/20 09:13:31;;;;;;;32.75;13.90;;;1.30;99.90;;;;;;5020062;28;20445;-74
2022/11/20 09:15:59;;;;;;;31.00;13.88;;;1.40;99.90;;;;;;5023634;28;20124;-75
2022/11/20 09:18:27;;;;;;;29.75;15.07;;;1.50;99.90;;;;;;5027465;28;20033;-78
2022/11/20 09:20:58;;;;;;;28.15;14.23;;;1.70;99.90;;;;;;5031944;28;20030;-76
2022/11/20 09:23:27;;;;;;;29.70;13.67;;;1.80;99.90;;;;;;5029289;28;20104;-75
2022/11/20 09:25:55;;;;;;;32.65;15.00;;;1.90;99.90;;;;;;5027517;28;20431;-76
2022/11/20 09:28:21;;;;;;;186.07;54.35;;;2.00;99.90;;;;;;5031929;28;20057;-76
2022/11/20 09:30:47;;;;;;;37.72;17.90;;;2.00;99.90;;;;;;5030457;28;20526;-75
2022/11/20 09:33:12;;;;;;;28.20;15.40;;;2.10;99.90;;;;;;5018736;28;20033;-75
2022/11/20 09:35:38;;;;;;;31.27;15.27;;;2.20;99.90;;;;;;5027062;28;20347;-76
2022/11/20 09:38:07;;;;;;;34.28;16.00;;;2.20;99.90;;;;;;5022522;28;20033;-77
2022/11/20 09:40:39;;;;;;;29.25;14.95;;;2.30;99.90;;;;;;5033957;28;20048;-76
2022/11/20 09:43:18;;;;;;;33.75;15.85;;;2.30;99.90;;;;;;5023831;28;20031;-77
2022/11/20 09:45:55;;;;;;;32.75;15.38;;;2.50;99.90;;;;;;5022505;28;20026;-74
2022/11/20 09:48:39;;;;;;;29.88;14.30;;;2.70;99.90;;;;;;5021270;28;20041;-76
2022/11/20 09:51:43;;;;;;;30.55;15.50;;;2.80;99.90;;;;;;5021311;28;20028;-77
2022/11/20 09:54:22;;;;;;;34.28;17.00;;;2.90;99.90;;;;;;5027750;28;20106;-76
2022/11/20 09:56:56;;;;;;;43.47;17.98;;;3.10;99.90;;;;;;5021977;28;20021;-74
2022/11/20 09:59:32;;;;;;;35.45;17.17;;;3.30;99.90;;;;;;5023932;28;20471;-76
2022/11/20 10:01:59;;;;;;;35.67;17.30;;;3.40;99.90;;;;;;5027436;28;20068;-77
2022/11/20 10:04:25;;;;;;;35.47;17.25;;;3.60;99.90;;;;;;5018995;28;20025;-76
2022/11/20 10:07:12;;;;;;;39.80;18.77;;;3.80;99.90;;;;;;5028538;28;20040;-72
2022/11/20 10:09:50;;;;;;;38.55;17.58;;;4.00;99.90;;;;;;5042156;28;20076;-71
2022/11/20 10:12:25;;;;;;;36.63;17.92;;;4.20;99.90;;;;;;5029752;28;20033;-76
2022/11/20 10:15:01;;;;;;;36.70;18.58;;;4.50;99.90;;;;;;5024975;28;20045;-77
2022/11/20 10:18:14;;;;;;;40.60;17.73;;;4.70;99.90;;;;;;5026277;28;20029;-74
2022/11/20 10:21:01;;;;;;;38.33;17.38;;;4.90;99.90;;;;;;5011728;28;20049;-77
2022/11/20 10:24:08;;;;;;;39.08;18.73;;;5.00;99.90;;;;;;5048224;28;20047;-76
2022/11/20 10:27:05;;;;;;;45.42;20.00;;;5.10;99.90;;;;;;5029620;28;20057;-76
2022/11/20 10:29:39;;;;;;;39.70;17.90;;;5.30;99.90;;;;;;5008265;28;20033;-73
2022/11/20 10:32:10;;;;;;;37.90;18.02;;;5.40;99.90;;;;;;5041365;28;20080;-75
2022/11/20 10:34:54;;;;;;;46.87;20.60;;;5.40;99.90;;;;;;5030686;28;20021;-74
2022/11/20 10:37:25;;;;;;;32.30;16.73;;;5.60;99.90;;;;;;5022664;28;20356;-75
2022/11/20 10:39:58;;;;;;;34.20;17.73;;;5.70;99.90;;;;;;5028573;28;20037;-72
2022/11/20 10:42:37;;;;;;;37.17;17.85;;;5.80;99.90;;;;;;5022534;28;20034;-76
2022/11/20 10:45:26;;;;;;;39.33;18.00;;;5.80;99.90;;;;;;5024487;28;20101;-74
2022/11/20 10:48:22;;;;;;;36.45;18.23;;;5.80;99.90;;;;;;5042542;28;20026;-75
2022/11/20 10:51:35;;;;;;;38.05;18.48;;;5.80;99.90;;;;;;5028198;28;20767;-75
2022/11/20 10:54:24;;;;;;;40.47;18.38;;;6.10;99.90;;;;;;5013680;28;20042;-71
2022/11/20 10:56:52;;;;;;;39.83;19.10;;;6.50;99.90;;;;;;5033149;28;20055;-77
2022/11/20 10:59:38;;;;;;;40.92;18.30;;;6.70;99.90;;;;;;5033584;28;20048;-76
2022/11/20 11:02:20;;;;;;;41.05;18.63;;;6.80;99.90;;;;;;5029102;28;20037;-76
2022/11/20 11:04:49;;;;;;;38.67;18.57;;;7.00;99.90;;;;;;5029098;28;20026;-74
2022/11/20 11:07:17;;;;;;;38.40;17.63;;;7.00;99.90;;;;;;5032557;28;20265;-78
2022/11/20 11:09:52;;;;;;;38.95;18.92;;;6.90;99.90;;;;;;5034975;28;20056;-74
2022/11/20 11:12:22;;;;;;;31.85;17.58;;;7.00;99.90;;;;;;5023770;28;20108;-76
2022/11/20 11:14:51;;;;;;;40.80;18.38;;;7.20;99.90;;;;;;5027219;28;20453;-75
2022/11/20 11:17:36;;;;;;;36.42;19.17;;;7.20;99.90;;;;;;5027237;28;20057;-75
2022/11/20 11:20:18;;;;;;;35.55;18.52;;;7.20;99.90;;;;;;5027796;28;20032;-76
2022/11/20 11:22:55;;;;;;;34.00;18.40;;;7.30;99.90;;;;;;5023488;28;20442;-77
2022/11/20 11:25:34;;;;;;;35.53;18.42;;;7.60;99.90;;;;;;5022377;28;20041;-75
2022/11/20 11:28:03;;;;;;;33.72;17.55;;;7.80;99.90;;;;;;5024166;28;20013;-77
2022/11/20 11:30:43;;;;;;;33.05;17.70;;;7.90;99.90;;;;;;5021664;28;20029;-75
2022/11/20 11:33:19;;;;;;;32.17;17.35;;;7.80;99.90;;;;;;5024715;28;20029;-76
2022/11/20 11:35:52;;;;;;;29.33;16.00;;;7.50;99.90;;;;;;5027686;28;20034;-76
2022/11/20 11:38:27;;;;;;;30.67;15.43;;;7.30;99.90;;;;;;5033390;28;20474;-75
2022/11/20 11:40:54;;;;;;;32.53;16.73;;;7.30;99.90;;;;;;5028264;28;20022;-75
2022/11/20 11:46:35;;;;;;;30.08;15.23;;;7.00;99.90;;;;;;5026334;28;20125;-77
2022/11/20 11:49:04;;;;;;;30.02;16.00;;;6.80;99.90;;;;;;5022017;28;20080;-74
2022/11/20 11:51:55;;;;;;;29.38;15.55;;;6.90;99.90;;;;;;5022964;28;20091;-79
2022/11/20 11:54:26;;;;;;;33.15;16.15;;;6.90;99.90;;;;;;5025871;28;20451;-74
2022/11/20 11:56:53;;;;;;;29.58;16.20;;;7.00;99.90;;;;;;5025367;28;20443;-75
2022/11/20 11:59:33;;;;;;;32.17;16.48;;;7.00;99.90;;;;;;5023553;28;20057;-77
2022/11/20 12:02:04;;;;;;;31.92;15.98;;;6.90;99.90;;;;;;5019368;28;20026;-78
2022/11/20 12:04:57;;;;;;;30.05;16.70;;;7.00;99.90;;;;;;5024113;28;20680;-78
2022/11/20 12:07:29;;;;;;;34.58;15.20;;;7.00;99.90;;;;;;5026115;28;20386;-78
2022/11/20 12:09:58;;;;;;;28.50;15.10;;;6.80;99.90;;;;;;5025355;28;20052;-76
2022/11/20 12:12:36;;;;;;;29.30;15.57;;;6.60;99.90;;;;;;5022964;28;20029;-78
2022/11/20 12:15:03;;;;;;;31.70;14.98;;;6.50;99.90;;;;;;5017503;28;20452;-71
2022/11/20 12:17:29;;;;;;;31.45;16.70;;;6.40;99.90;;;;;;5022693;28;20042;-77
2022/11/20 12:19:58;;;;;;;32.67;15.15;;;6.30;99.90;;;;;;5028083;28;20083;-75
2022/11/20 12:22:43;;;;;;;32.38;16.02;;;6.20;99.90;;;;;;5026720;28;20033;-78
2022/11/20 12:25:15;;;;;;;34.55;17.02;;;6.00;99.90;;;;;;5023698;28;20029;-72
2022/11/20 12:28:15;;;;;;;30.15;16.15;;;5.90;99.90;;;;;;5020145;28;20045;-76
2022/11/20 12:31:10;;;;;;;32.63;17.17;;;5.80;99.90;;;;;;5022735;28;20026;-75
2022/11/20 12:34:12;;;;;;;34.10;16.85;;;5.80;99.90;;;;;;5022155;28;20021;-75
2022/11/20 12:36:47;;;;;;;31.38;16.27;;;5.80;99.90;;;;;;5024272;28;20022;-77
2022/11/20 12:39:35;;;;;;;30.90;16.35;;;5.80;99.90;;;;;;5023244;28;20716;-75
2022/11/20 12:45:44;;;;;;;30.85;16.55;;;5.80;99.90;;;;;;5023323;28;20040;-77
2022/11/20 12:48:40;;;;;;;32.30;16.20;;;5.90;99.90;;;;;;5019323;28;20116;-77
2022/11/20 12:51:17;;;;;;;79.60;31.23;;;5.90;99.90;;;;;;5024538;28;20017;-72
2022/11/20 12:54:24;;;;;;;39.80;18.77;;;5.80;99.90;;;;;;5020834;28;20049;-77
2022/11/20 12:57:12;;;;;;;36.85;17.42;;;5.90;99.90;;;;;;5021334;28;20034;-77
2022/11/20 12:59:58;;;;;;;40.22;17.88;;;6.00;99.90;;;;;;5021341;28;20029;-77
2022/11/20 13:03:01;;;;;;;34.17;16.67;;;5.90;99.90;;;;;;5023135;28;20057;-76
2022/11/20 13:05:51;;;;;;;32.88;17.55;;;5.90;99.90;;;;;;5025031;28;20121;-75